createdAt,value
2022-10-17T00:02:26.964Z,0.57
2022-10-17T00:04:57.067Z,0.47
2022-10-17T00:07:27.466Z,0.45
2022-10-17T00:09:57.838Z,0.80
2022-10-17T00:12:28.146Z,1.15
2022-10-17T00:14:58.823Z,0.50
2022-10-17T00:17:29.595Z,0.85
2022-10-17T00:20:02.297Z,0.40
2022-10-17T00:22:32.561Z,0.57
2022-10-17T00:25:03.037Z,0.70
2022-10-17T00:27:33.394Z,0.80
2022-10-17T00:30:03.646Z,0.52
2022-10-17T00:32:33.896Z,0.50
2022-10-17T00:35:04.557Z,0.60
2022-10-17T00:37:35.418Z,0.80
2022-10-17T00:40:06.226Z,0.50
2022-10-17T00:42:36.825Z,0.60
2022-10-17T00:45:29.468Z,0.68
2022-10-17T00:48:07.285Z,0.43
2022-10-17T00:50:40.209Z,0.55
2022-10-17T00:53:11.704Z,0.60
2022-10-17T00:55:51.741Z,0.50
2022-10-17T00:58:22.608Z,0.70
2022-10-17T01:00:52.882Z,0.68
2022-10-17T01:03:23.073Z,0.80
2022-10-17T01:05:53.502Z,0.80
2022-10-17T01:08:23.908Z,0.65
2022-10-17T01:11:30.593Z,0.47
2022-10-17T01:14:24.806Z,0.60
2022-10-17T01:16:58.324Z,0.40
2022-10-17T01:20:05.240Z,0.50
2022-10-17T01:22:41.481Z,0.50
2022-10-17T01:25:45.737Z,0.45
2022-10-17T01:28:21.632Z,0.57
2022-10-17T01:31:10.381Z,0.45
2022-10-17T01:33:53.783Z,0.40
2022-10-17T01:36:29.834Z,0.43
2022-10-17T01:39:32.503Z,0.50
2022-10-17T01:42:25.072Z,0.40
2022-10-17T01:45:26.135Z,0.55
2022-10-17T01:47:59.965Z,0.70
2022-10-17T01:50:37.338Z,0.75
2022-10-17T01:53:26.709Z,0.70
2022-10-17T01:56:01.733Z,0.52
2022-10-17T01:58:36.557Z,0.60
2022-10-17T02:01:09.934Z,0.47
2022-10-17T02:03:41.986Z,0.70
2022-10-17T02:06:12.173Z,0.50
2022-10-17T02:08:51.259Z,0.50
2022-10-17T02:11:29.680Z,0.63
2022-10-17T02:14:38.254Z,0.40
2022-10-17T02:17:23.325Z,1.00
2022-10-17T02:20:17.218Z,0.55
2022-10-17T02:22:55.460Z,0.50
2022-10-17T02:25:34.315Z,0.70
2022-10-17T02:28:33.705Z,0.70
2022-10-17T02:31:24.928Z,0.43
2022-10-17T02:34:10.327Z,0.82
2022-10-17T02:36:45.751Z,0.60
2022-10-17T02:39:17.629Z,0.73
2022-10-17T02:41:48.265Z,0.50
2022-10-17T02:44:19.624Z,0.52
2022-10-17T02:46:57.603Z,0.50
2022-10-17T02:49:33.820Z,0.60
2022-10-17T02:52:03.913Z,0.57
2022-10-17T02:54:55.260Z,0.50
2022-10-17T02:57:38.134Z,0.45
2022-10-17T03:00:15.374Z,0.50
2022-10-17T03:02:51.945Z,0.50
2022-10-17T03:05:28.362Z,0.40
2022-10-17T03:07:59.582Z,0.50
2022-10-17T03:10:29.777Z,0.60
2022-10-17T03:12:59.960Z,0.73
2022-10-17T03:15:30.267Z,0.50
2022-10-17T03:18:00.682Z,0.50
2022-10-17T03:20:31.020Z,0.73
2022-10-17T03:23:01.632Z,0.52
2022-10-17T03:25:32.100Z,0.60
2022-10-17T03:28:03.276Z,0.50
2022-10-17T03:30:34.075Z,0.40
2022-10-17T03:33:04.192Z,0.50
2022-10-17T03:35:34.423Z,0.40
2022-10-17T03:38:04.516Z,0.40
2022-10-17T03:40:34.739Z,0.32
2022-10-17T03:43:04.959Z,0.50
2022-10-17T03:45:35.265Z,0.30
2022-10-17T03:48:05.528Z,1.20
2022-10-17T03:50:35.703Z,0.70
2022-10-17T03:53:05.810Z,0.68
2022-10-17T03:55:36.127Z,0.70
2022-10-17T03:58:06.252Z,0.50
2022-10-17T04:00:38.152Z,0.50
2022-10-17T04:03:08.354Z,0.70
2022-10-17T04:05:38.483Z,0.55
2022-10-17T04:08:08.658Z,0.50
2022-10-17T04:10:38.839Z,0.55
2022-10-17T04:13:09.418Z,0.50
2022-10-17T04:15:39.611Z,0.70
2022-10-17T04:18:09.778Z,0.73
2022-10-17T04:20:40.065Z,0.70
2022-10-17T04:23:10.239Z,0.40
2022-10-17T04:25:40.399Z,0.65
2022-10-17T04:28:10.834Z,0.55
2022-10-17T04:30:45.080Z,0.50
2022-10-17T04:33:15.834Z,0.50
2022-10-17T04:35:45.967Z,0.40
2022-10-17T04:38:16.123Z,0.40
2022-10-17T04:40:46.253Z,0.50
2022-10-17T04:43:16.394Z,0.60
2022-10-17T04:45:46.857Z,0.50
2022-10-17T04:48:16.980Z,0.55
2022-10-17T04:51:00.573Z,0.30
2022-10-17T04:53:33.308Z,0.30
2022-10-17T04:56:04.001Z,0.35
2022-10-17T04:58:34.345Z,0.60
2022-10-17T05:01:11.426Z,0.60
2022-10-17T05:03:42.110Z,0.60
2022-10-17T05:06:15.023Z,0.35
2022-10-17T05:08:46.246Z,0.75
2022-10-17T05:11:28.199Z,0.43
2022-10-17T05:14:03.538Z,1.17
2022-10-17T05:16:34.001Z,0.82
2022-10-17T05:19:04.897Z,0.80
2022-10-17T05:21:35.436Z,0.90
2022-10-17T05:24:13.508Z,0.60
2022-10-17T05:26:43.752Z,0.50
2022-10-17T05:29:13.949Z,0.70
2022-10-17T05:31:44.175Z,0.80
2022-10-17T05:34:14.356Z,0.70
2022-10-17T05:36:44.470Z,0.80
2022-10-17T05:39:16.548Z,0.93
2022-10-17T05:41:46.656Z,0.40
2022-10-17T05:44:17.081Z,0.50
2022-10-17T05:46:47.201Z,0.57
2022-10-17T05:49:32.006Z,0.60
2022-10-17T05:52:03.766Z,0.70
2022-10-17T05:54:34.330Z,0.57
2022-10-17T05:57:04.871Z,0.50
2022-10-17T05:59:35.763Z,0.70
2022-10-17T06:02:06.249Z,0.40
2022-10-17T06:04:36.618Z,0.52
2022-10-17T06:07:07.297Z,0.60
2022-10-17T06:09:37.878Z,0.50
2022-10-17T06:12:08.577Z,0.70
2022-10-17T06:14:38.904Z,0.52
2022-10-17T06:17:13.409Z,1.10
2022-10-17T06:19:46.288Z,0.80
2022-10-17T06:22:16.675Z,0.60
2022-10-17T06:24:46.851Z,0.50
2022-10-17T06:27:17.034Z,0.47
2022-10-17T06:29:47.210Z,0.70
2022-10-17T06:32:17.302Z,0.88
2022-10-17T06:34:47.587Z,0.70
2022-10-17T06:37:17.723Z,0.60
2022-10-17T06:39:48.004Z,0.63
2022-10-17T06:42:18.083Z,0.68
2022-10-17T06:44:48.266Z,0.55
2022-10-17T06:47:19.980Z,0.68
2022-10-17T06:49:50.390Z,0.60
2022-10-17T06:52:20.521Z,0.63
2022-10-17T06:54:50.753Z,0.50
2022-10-17T06:57:21.695Z,0.85
2022-10-17T06:59:51.809Z,0.50
2022-10-17T07:02:22.804Z,0.70
2022-10-17T07:04:53.098Z,0.60
2022-10-17T07:07:23.254Z,0.80
2022-10-17T07:09:54.622Z,0.70
2022-10-17T07:12:25.861Z,0.70
2022-10-17T07:14:55.980Z,0.70
2022-10-17T07:17:26.350Z,0.68
2022-10-17T07:19:56.619Z,0.57
2022-10-17T07:22:27.361Z,0.70
2022-10-17T07:24:57.529Z,0.98
2022-10-17T07:27:28.038Z,0.77
2022-10-17T07:29:58.433Z,0.60
2022-10-17T07:32:28.612Z,0.60
2022-10-17T07:34:58.819Z,1.40
2022-10-17T07:37:29.344Z,1.55
2022-10-17T07:39:59.543Z,1.55
2022-10-17T07:42:30.224Z,1.40
2022-10-17T07:45:00.427Z,1.35
2022-10-17T07:47:32.962Z,1.23
2022-10-17T07:50:04.350Z,1.40
2022-10-17T07:52:34.898Z,1.30
2022-10-17T07:55:05.222Z,1.02
2022-10-17T07:57:35.447Z,1.15
2022-10-17T08:00:05.850Z,1.00
2022-10-17T08:02:35.996Z,1.20
2022-10-17T08:05:06.317Z,0.93
2022-10-17T08:07:36.591Z,1.10
2022-10-17T08:12:37.806Z,0.88
2022-10-17T08:15:09.424Z,1.20
2022-10-17T08:17:40.996Z,1.00
2022-10-17T08:20:12.309Z,1.02
2022-10-17T08:22:42.683Z,0.90
2022-10-17T08:25:13.313Z,1.10
2022-10-17T08:27:43.392Z,0.95
2022-10-17T08:30:13.962Z,1.00
2022-10-17T08:32:44.643Z,1.45
2022-10-17T08:35:16.404Z,0.70
2022-10-17T08:37:47.003Z,0.90
2022-10-17T08:40:35.689Z,0.70
2022-10-17T08:43:12.028Z,0.90
2022-10-17T08:45:44.939Z,0.88
2022-10-17T08:48:22.544Z,0.98
2022-10-17T08:51:13.153Z,0.88
2022-10-17T08:53:58.502Z,0.77
2022-10-17T08:56:48.179Z,0.93
2022-10-17T08:59:30.038Z,1.02
2022-10-17T09:02:21.269Z,0.70
2022-10-17T09:05:24.024Z,0.75
2022-10-17T09:08:29.920Z,0.93
2022-10-17T09:11:21.256Z,0.73
2022-10-17T09:14:15.569Z,0.85
2022-10-17T09:17:06.913Z,0.95
2022-10-17T09:20:04.615Z,0.80
2022-10-17T09:22:48.067Z,0.60
2022-10-17T09:25:21.857Z,1.00
2022-10-17T09:28:05.328Z,0.70
2022-10-17T09:30:47.402Z,0.90
2022-10-17T09:33:35.313Z,0.80
2022-10-17T09:36:22.389Z,0.63
2022-10-17T09:39:07.940Z,0.63
2022-10-17T09:41:47.587Z,0.60
2022-10-17T09:44:36.933Z,0.90
2022-10-17T09:47:15.941Z,0.80
2022-10-17T09:49:48.658Z,0.60
2022-10-17T09:52:52.533Z,0.70
2022-10-17T09:55:44.937Z,0.80
2022-10-17T09:58:15.583Z,0.90
2022-10-17T10:00:50.541Z,0.80
2022-10-17T10:03:29.007Z,0.80
2022-10-17T10:06:03.956Z,0.70
2022-10-17T10:08:40.360Z,0.70
2022-10-17T10:11:13.858Z,0.65
2022-10-17T10:13:46.147Z,0.50
2022-10-17T10:16:25.329Z,0.50
2022-10-17T10:18:56.124Z,0.90
2022-10-17T10:21:30.198Z,0.80
2022-10-17T10:24:12.474Z,0.60
2022-10-17T10:26:52.413Z,0.70
2022-10-17T10:29:28.510Z,0.70
2022-10-17T10:32:09.992Z,0.65
2022-10-17T10:34:47.465Z,0.68
2022-10-17T10:37:30.795Z,0.60
2022-10-17T10:40:43.753Z,0.60
2022-10-17T10:43:46.263Z,0.50
2022-10-17T10:46:26.035Z,0.70
2022-10-17T10:49:01.895Z,0.68
2022-10-17T10:51:45.674Z,0.80
2022-10-17T10:54:31.644Z,0.60
2022-10-17T10:57:05.211Z,0.80
2022-10-17T10:59:58.249Z,0.50
2022-10-17T11:02:51.473Z,0.68
2022-10-17T11:05:49.894Z,0.80
2022-10-17T11:08:41.991Z,0.65
2022-10-17T11:11:40.401Z,0.90
2022-10-17T11:14:21.586Z,0.77
2022-10-17T11:17:17.780Z,0.50
2022-10-17T11:20:26.233Z,0.70
2022-10-17T11:23:03.628Z,1.23
2022-10-17T11:25:42.724Z,0.50
2022-10-17T11:28:19.387Z,0.65
2022-10-17T11:30:52.480Z,0.50
2022-10-17T11:34:21.799Z,0.52
2022-10-17T11:36:56.905Z,0.63
2022-10-17T11:39:50.969Z,0.60
2022-10-17T11:42:52.173Z,0.70
2022-10-17T11:45:24.698Z,0.52
2022-10-17T11:48:14.726Z,0.73
2022-10-17T11:53:52.669Z,0.50
2022-10-17T11:56:52.385Z,0.73
2022-10-17T12:00:09.556Z,0.70
2022-10-17T12:02:50.157Z,0.55
2022-10-17T12:05:49.869Z,0.40
2022-10-17T12:08:55.057Z,0.50
2022-10-17T12:11:31.006Z,0.70
2022-10-17T12:14:03.789Z,0.70
2022-10-17T12:19:27.042Z,0.77
2022-10-17T12:22:07.769Z,0.70
2022-10-17T12:24:44.837Z,1.20
2022-10-17T12:27:44.060Z,1.20
2022-10-17T12:30:29.959Z,1.58
2022-10-17T12:33:08.261Z,1.20
2022-10-17T12:35:40.447Z,1.27
2022-10-17T12:38:30.639Z,1.33
2022-10-17T12:41:01.627Z,1.20
2022-10-17T12:43:31.793Z,1.52
2022-10-17T12:46:07.216Z,1.60
2022-10-17T12:48:37.305Z,1.40
2022-10-17T12:51:36.183Z,1.48
2022-10-17T12:54:17.002Z,1.25
2022-10-17T12:56:50.158Z,1.10
2022-10-17T12:59:24.590Z,1.60
2022-10-17T13:02:06.300Z,1.70
2022-10-17T13:04:39.546Z,1.75
2022-10-17T13:07:25.650Z,1.35
2022-10-17T13:09:56.059Z,1.25
2022-10-17T13:12:30.000Z,1.08
2022-10-17T13:15:00.439Z,1.52
2022-10-17T13:17:32.759Z,1.50
2022-10-17T13:20:03.233Z,1.10
2022-10-17T13:22:34.907Z,1.67
2022-10-17T13:25:22.666Z,1.40
2022-10-17T13:27:55.370Z,1.38
2022-10-17T13:30:32.405Z,1.40
2022-10-17T13:33:03.658Z,1.50
2022-10-17T13:38:40.358Z,1.63
2022-10-17T13:44:16.279Z,1.63
2022-10-17T13:46:47.399Z,1.50
2022-10-17T13:49:25.843Z,1.27
2022-10-17T13:51:58.535Z,1.38
2022-10-17T13:54:28.745Z,1.30
2022-10-17T13:57:00.048Z,1.27
2022-10-17T13:59:57.110Z,1.10
2022-10-17T14:02:33.037Z,1.33
2022-10-17T14:05:20.173Z,1.38
2022-10-17T14:08:13.402Z,1.40
2022-10-17T14:10:46.941Z,1.83
2022-10-17T14:13:28.382Z,1.67
2022-10-17T14:16:02.255Z,1.52
2022-10-17T14:18:37.021Z,1.23
2022-10-17T14:24:25.378Z,1.27
2022-10-17T14:27:00.387Z,1.25
2022-10-17T14:29:52.125Z,1.50
2022-10-17T14:32:23.296Z,1.17
2022-10-17T14:35:10.572Z,1.20
2022-10-17T14:37:50.327Z,1.40
2022-10-17T14:40:24.233Z,1.73
2022-10-17T14:43:02.174Z,1.10
2022-10-17T14:45:34.219Z,1.08
2022-10-17T14:48:13.507Z,1.20
2022-10-17T14:53:15.303Z,1.30
2022-10-17T14:55:59.843Z,1.10
2022-10-17T14:58:34.730Z,1.52
2022-10-17T15:01:05.460Z,1.38
2022-10-17T15:03:35.662Z,1.20
2022-10-17T15:06:42.278Z,1.00
2022-10-17T15:09:13.276Z,1.02
2022-10-17T15:11:43.393Z,1.48
2022-10-17T15:14:13.591Z,1.30
2022-10-17T15:16:43.783Z,1.30
2022-10-17T15:19:15.961Z,1.30
2022-10-17T15:21:47.294Z,1.00
2022-10-17T15:24:17.763Z,1.38
2022-10-17T15:26:48.060Z,1.17
2022-10-17T15:29:18.579Z,1.17
2022-10-17T15:31:48.809Z,1.00
2022-10-17T15:34:19.137Z,1.23
2022-10-17T15:36:53.849Z,1.63
2022-10-17T15:39:24.006Z,1.70
2022-10-17T15:41:54.310Z,1.40
2022-10-17T15:44:24.447Z,1.50
2022-10-17T15:46:54.681Z,1.25
2022-10-17T15:49:24.794Z,1.20
2022-10-17T15:51:55.470Z,1.52
2022-10-17T15:54:25.746Z,1.50
2022-10-17T15:56:57.841Z,1.05
2022-10-17T15:59:33.978Z,1.67
2022-10-17T16:02:04.123Z,1.30
2022-10-17T16:04:34.384Z,1.40
2022-10-17T16:07:04.739Z,1.13
2022-10-17T16:09:36.012Z,1.33
2022-10-17T16:12:08.454Z,1.30
2022-10-17T16:14:38.579Z,1.10
2022-10-17T16:17:08.942Z,1.10
2022-10-17T16:19:39.149Z,1.10
2022-10-17T16:22:12.899Z,1.00
2022-10-17T16:24:43.058Z,1.15
2022-10-17T16:27:13.225Z,1.05
2022-10-17T16:29:43.445Z,1.02
2022-10-17T16:32:13.783Z,1.15
2022-10-17T16:34:43.967Z,1.20
2022-10-17T16:37:14.128Z,1.10
2022-10-17T16:39:44.372Z,1.20
2022-10-17T16:42:14.533Z,1.08
2022-10-17T16:44:44.754Z,1.00
2022-10-17T16:47:15.121Z,1.17
2022-10-17T16:49:45.548Z,1.23
2022-10-17T16:52:16.135Z,1.15
2022-10-17T16:54:46.228Z,1.20
2022-10-17T16:57:16.673Z,1.05
2022-10-17T16:59:46.883Z,1.05
2022-10-17T17:02:20.413Z,1.15
2022-10-17T17:04:51.615Z,0.95
2022-10-17T17:07:23.420Z,1.27
2022-10-17T17:09:55.303Z,0.70
2022-10-17T17:12:25.836Z,1.35
2022-10-17T17:14:55.948Z,0.98
2022-10-17T17:17:44.239Z,1.00
2022-10-17T17:20:18.877Z,0.90
2022-10-17T17:22:49.079Z,1.15
2022-10-17T17:25:19.303Z,1.30
2022-10-17T17:27:49.701Z,1.00
2022-10-17T17:30:20.058Z,1.13
2022-10-17T17:32:50.315Z,1.08
2022-10-17T17:35:20.510Z,0.90
2022-10-17T17:37:50.692Z,1.30
2022-10-17T17:40:20.858Z,1.05
2022-10-17T17:42:51.185Z,0.90
2022-10-17T17:45:21.375Z,0.88
2022-10-17T17:47:51.486Z,0.90
2022-10-17T17:50:21.914Z,1.17
2022-10-17T17:52:52.795Z,1.00
2022-10-17T17:55:22.984Z,1.00
2022-10-17T17:57:53.331Z,0.68
2022-10-17T18:00:23.465Z,1.13
2022-10-17T18:02:53.815Z,1.02
2022-10-17T18:05:24.005Z,0.75
2022-10-17T18:07:54.194Z,0.93
2022-10-17T18:10:24.545Z,0.85
2022-10-17T18:12:54.635Z,0.93
2022-10-17T18:15:24.874Z,1.20
2022-10-17T18:17:55.032Z,0.98
2022-10-17T18:20:25.227Z,0.95
2022-10-17T18:22:57.354Z,0.80
2022-10-17T18:25:29.580Z,0.85
2022-10-17T18:27:59.740Z,0.93
2022-10-17T18:30:33.669Z,0.98
2022-10-17T18:33:04.756Z,0.90
2022-10-17T18:35:36.387Z,0.65
2022-10-17T18:38:06.553Z,0.98
2022-10-17T18:40:36.879Z,0.90
2022-10-17T18:43:07.165Z,0.88
2022-10-17T18:45:38.248Z,1.00
2022-10-17T18:48:09.147Z,0.90
2022-10-17T18:50:41.838Z,0.80
2022-10-17T18:53:11.956Z,1.00
2022-10-17T18:55:42.722Z,1.08
2022-10-17T18:58:13.193Z,1.00
2022-10-17T19:00:43.453Z,0.88
2022-10-17T19:03:13.775Z,1.00
2022-10-17T19:05:46.824Z,0.93
2022-10-17T19:08:17.996Z,0.90
2022-10-17T19:10:48.154Z,1.02
2022-10-17T19:13:21.462Z,0.73
2022-10-17T19:15:51.985Z,0.82
2022-10-17T19:18:22.234Z,0.88
2022-10-17T19:20:54.578Z,1.00
2022-10-17T19:23:24.768Z,0.80
2022-10-17T19:25:57.035Z,0.80
2022-10-17T19:28:30.063Z,0.90
2022-10-17T19:31:00.350Z,1.00
2022-10-17T19:33:30.792Z,1.05
2022-10-17T19:36:03.573Z,1.00
2022-10-17T19:38:33.767Z,1.00
2022-10-17T19:41:07.849Z,0.95
2022-10-17T19:43:42.442Z,0.88
2022-10-17T19:46:21.734Z,0.80
2022-10-17T19:48:53.290Z,1.17
2022-10-17T19:51:28.005Z,0.95
2022-10-17T19:54:03.603Z,1.48
2022-10-17T19:56:39.279Z,1.17
2022-10-17T19:59:10.169Z,1.27
2022-10-17T20:01:41.473Z,1.27
2022-10-17T20:04:12.924Z,1.10
2022-10-17T20:06:43.859Z,0.90
2022-10-17T20:09:17.081Z,1.27
2022-10-17T20:11:48.371Z,0.90
2022-10-17T20:14:18.748Z,1.00
2022-10-17T20:16:53.385Z,1.25
2022-10-17T20:19:23.853Z,0.85
2022-10-17T20:21:54.041Z,1.20
2022-10-17T20:24:24.259Z,1.20
2022-10-17T20:26:54.416Z,1.00
2022-10-17T20:29:25.697Z,0.98
2022-10-17T20:31:55.850Z,0.85
2022-10-17T20:34:26.174Z,1.00
2022-10-17T20:36:56.469Z,1.00
2022-10-17T20:39:26.591Z,1.05
2022-10-17T20:41:56.956Z,0.88
2022-10-17T20:44:27.116Z,1.02
2022-10-17T20:47:02.078Z,1.10
2022-10-17T20:49:33.825Z,1.02
2022-10-17T20:52:04.305Z,1.05
2022-10-17T20:54:34.477Z,0.90
2022-10-17T20:57:05.556Z,1.00
2022-10-17T20:59:37.697Z,1.10
2022-10-17T21:02:08.576Z,0.93
2022-10-17T21:04:46.340Z,1.00
2022-10-17T21:07:17.513Z,0.80
2022-10-17T21:09:48.205Z,1.30
2022-10-17T21:12:26.246Z,0.82
2022-10-17T21:15:02.685Z,1.00
2022-10-17T21:17:32.889Z,0.82
2022-10-17T21:20:03.121Z,0.85
2022-10-17T21:22:35.701Z,0.80
2022-10-17T21:25:06.078Z,0.80
2022-10-17T21:27:36.272Z,0.70
2022-10-17T21:32:51.180Z,1.00
2022-10-17T21:35:22.284Z,0.88
2022-10-17T21:37:54.469Z,0.80
2022-10-17T21:40:24.763Z,0.90
2022-10-17T21:42:55.026Z,1.48
2022-10-17T21:45:26.257Z,1.20
2022-10-17T21:48:12.193Z,0.98
2022-10-17T21:50:43.228Z,1.13
2022-10-17T21:53:13.350Z,1.02
2022-10-17T21:55:43.447Z,1.00
2022-10-17T21:58:13.704Z,1.20
2022-10-17T22:00:43.915Z,1.15
2022-10-17T22:03:16.811Z,2.00
2022-10-17T22:05:47.799Z,1.20
2022-10-17T22:08:17.973Z,1.23
2022-10-17T22:10:48.082Z,1.35
2022-10-17T22:13:18.222Z,1.10
2022-10-17T22:15:48.458Z,0.88
2022-10-17T22:18:19.007Z,0.77
2022-10-17T22:20:49.151Z,1.10
2022-10-17T22:23:19.321Z,0.98
2022-10-17T22:25:59.867Z,0.80
2022-10-17T22:28:30.567Z,0.93
2022-10-17T22:31:00.817Z,1.00
2022-10-17T22:33:33.435Z,0.70
2022-10-17T22:36:04.440Z,0.88
2022-10-17T22:38:34.641Z,1.10
2022-10-17T22:41:06.089Z,0.93
2022-10-17T22:43:36.264Z,0.75
2022-10-17T22:46:07.723Z,0.80
2022-10-17T22:48:39.031Z,1.05
2022-10-17T22:51:09.457Z,1.35
2022-10-17T22:53:39.699Z,0.93
2022-10-17T22:56:15.770Z,1.13
2022-10-17T22:58:46.269Z,0.90
2022-10-17T23:01:19.730Z,1.13
2022-10-17T23:03:50.662Z,1.08
2022-10-17T23:06:21.704Z,0.90
2022-10-17T23:08:52.337Z,0.77
2022-10-17T23:11:22.658Z,1.10
2022-10-17T23:13:52.961Z,0.73
2022-10-17T23:16:23.108Z,0.90
2022-10-17T23:18:53.175Z,1.20
2022-10-17T23:21:23.347Z,1.40
2022-10-17T23:23:53.428Z,0.95
2022-10-17T23:26:23.606Z,1.05
2022-10-17T23:28:57.345Z,1.10
2022-10-17T23:31:27.985Z,0.82
2022-10-17T23:33:58.328Z,0.73
2022-10-17T23:36:29.610Z,1.10
2022-10-17T23:38:59.833Z,1.00
2022-10-17T23:41:30.062Z,1.05
2022-10-17T23:44:00.587Z,0.70
2022-10-17T23:46:30.859Z,0.68
2022-10-17T23:49:01.046Z,0.82
2022-10-17T23:51:31.287Z,0.90
2022-10-17T23:54:01.480Z,0.90
2022-10-17T23:56:31.595Z,0.80
2022-10-17T23:59:01.778Z,0.90
